createdAt,value
2023-05-17T00:00:44.749Z,4.70
2023-05-17T00:03:41.608Z,3.35
2023-05-17T00:06:38.456Z,3.95
2023-05-17T00:09:36.036Z,2.85
2023-05-17T00:12:32.875Z,2.83
2023-05-17T00:15:30.192Z,2.40
2023-05-17T00:18:27.223Z,3.47
2023-05-17T00:21:24.150Z,3.50
2023-05-17T00:24:20.993Z,3.47
2023-05-17T00:27:17.869Z,3.85
2023-05-17T00:30:15.155Z,2.13
2023-05-17T00:33:12.086Z,1.70
2023-05-17T00:36:09.185Z,2.20
2023-05-17T00:39:06.055Z,1.95
2023-05-17T00:42:04.875Z,3.33
2023-05-17T00:45:01.768Z,4.28
2023-05-17T00:47:58.728Z,2.50
2023-05-17T00:50:56.831Z,3.33
2023-05-17T00:53:53.713Z,2.67
2023-05-17T00:56:50.674Z,3.47
2023-05-17T00:59:47.944Z,3.80
2023-05-17T01:02:44.963Z,3.33
2023-05-17T01:05:42.260Z,2.33
2023-05-17T01:08:39.113Z,2.33
2023-05-17T01:12:07.366Z,1.90
2023-05-17T01:15:27.954Z,2.30
2023-05-17T01:18:41.907Z,2.60
2023-05-17T01:22:33.245Z,2.35
2023-05-17T01:25:59.701Z,3.10
2023-05-17T01:28:59.952Z,2.92
2023-05-17T01:31:59.538Z,2.97
2023-05-17T01:34:56.356Z,4.20
2023-05-17T01:37:54.217Z,2.13
2023-05-17T01:41:27.586Z,3.55
2023-05-17T01:44:40.808Z,3.50
2023-05-17T01:48:05.826Z,2.63
2023-05-17T01:51:03.913Z,5.00
2023-05-17T01:54:09.657Z,3.30
2023-05-17T01:57:09.833Z,1.63
2023-05-17T02:00:09.502Z,5.50
2023-05-17T02:03:06.525Z,4.83
2023-05-17T02:06:03.442Z,3.88
2023-05-17T02:09:02.694Z,6.32
2023-05-17T02:11:59.716Z,2.78
2023-05-17T02:14:56.590Z,4.03
2023-05-17T02:17:53.622Z,4.22
2023-05-17T02:20:50.603Z,2.88
2023-05-17T02:23:47.539Z,5.32
2023-05-17T02:26:45.790Z,2.60
2023-05-17T02:29:42.772Z,3.92
2023-05-17T02:32:39.829Z,3.10
2023-05-17T02:35:43.637Z,3.40
2023-05-17T02:38:40.606Z,4.68
2023-05-17T02:41:37.453Z,4.72
2023-05-17T02:44:34.378Z,5.50
2023-05-17T02:47:31.422Z,4.53
2023-05-17T02:50:28.372Z,5.63
2023-05-17T02:53:25.493Z,7.20
2023-05-17T02:56:22.523Z,5.45
2023-05-17T02:59:19.395Z,4.18
2023-05-17T03:02:16.383Z,4.00
2023-05-17T03:05:13.419Z,5.15
2023-05-17T03:08:10.348Z,5.88
2023-05-17T03:11:07.433Z,4.63
2023-05-17T03:14:04.323Z,6.72
2023-05-17T03:17:01.175Z,4.15
2023-05-17T03:19:58.046Z,7.03
2023-05-17T03:22:54.935Z,7.55
2023-05-17T03:25:51.862Z,5.45
2023-05-17T03:28:48.796Z,4.65
2023-05-17T03:31:46.019Z,3.05
2023-05-17T03:34:42.935Z,5.82
2023-05-17T03:37:39.795Z,4.10
2023-05-17T03:40:36.657Z,5.78
2023-05-17T03:43:33.655Z,7.97
2023-05-17T03:46:30.534Z,3.35
2023-05-17T03:49:27.408Z,6.38
2023-05-17T03:52:24.252Z,6.80
2023-05-17T03:55:21.208Z,6.82
2023-05-17T03:58:18.460Z,5.85
2023-05-17T04:01:15.303Z,6.20
2023-05-17T04:04:12.335Z,6.63
2023-05-17T04:07:09.574Z,21.13
2023-05-17T04:10:07.901Z,5.03
2023-05-17T04:13:04.808Z,9.57
2023-05-17T04:16:01.736Z,8.40
2023-05-17T04:19:01.060Z,13.13
2023-05-17T04:21:58.056Z,10.60
2023-05-17T04:24:54.943Z,12.73
2023-05-17T04:27:52.093Z,19.30
2023-05-17T04:30:48.971Z,9.27
2023-05-17T04:33:45.921Z,11.27
2023-05-17T04:36:43.161Z,17.17
2023-05-17T04:39:40.142Z,37.85
2023-05-17T04:42:37.034Z,26.70
2023-05-17T04:45:34.064Z,15.70
2023-05-17T04:48:32.793Z,19.38
2023-05-17T04:51:30.741Z,16.85
2023-05-17T04:54:27.658Z,20.55
2023-05-17T04:57:24.562Z,18.02
2023-05-17T05:00:23.788Z,12.45
2023-05-17T05:03:22.284Z,52.13
2023-05-17T05:06:19.268Z,49.47
2023-05-17T05:09:16.199Z,44.25
2023-05-17T05:12:13.203Z,42.35
2023-05-17T05:15:11.091Z,24.10
2023-05-17T05:18:08.056Z,23.05
2023-05-17T05:21:05.122Z,23.20
2023-05-17T05:24:01.979Z,29.30
2023-05-17T05:26:58.912Z,22.17
2023-05-17T05:29:56.263Z,20.40
2023-05-17T05:32:55.522Z,18.42
2023-05-17T05:35:52.647Z,19.35
2023-05-17T05:38:49.561Z,28.80
2023-05-17T05:41:47.402Z,25.70
2023-05-17T05:44:44.320Z,39.92
2023-05-17T05:47:43.602Z,23.33
2023-05-17T05:50:44.401Z,22.67
2023-05-17T05:56:44.733Z,38.88
2023-05-17T05:59:41.597Z,46.05
2023-05-17T06:02:38.543Z,42.40
2023-05-17T06:05:35.701Z,26.02
2023-05-17T06:08:32.682Z,18.05
2023-05-17T06:11:29.595Z,12.93
2023-05-17T06:14:26.762Z,10.18
2023-05-17T06:17:23.822Z,5.70
2023-05-17T06:20:20.735Z,5.50
2023-05-17T06:23:17.608Z,7.15
2023-05-17T06:26:14.514Z,8.95
2023-05-17T06:29:11.388Z,5.53
2023-05-17T06:32:08.249Z,7.57
2023-05-17T06:35:05.738Z,14.40
2023-05-17T06:38:02.844Z,6.03
2023-05-17T06:40:59.784Z,6.72
2023-05-17T06:43:56.717Z,7.35
2023-05-17T06:46:53.719Z,6.30
2023-05-17T06:49:50.743Z,6.57
2023-05-17T06:52:47.616Z,6.55
2023-05-17T06:55:44.851Z,7.40
2023-05-17T06:58:44.999Z,4.50
2023-05-17T07:01:42.265Z,7.22
2023-05-17T07:04:39.368Z,7.85
2023-05-17T07:07:36.417Z,3.30
2023-05-17T07:10:33.287Z,8.05
2023-05-17T07:13:35.726Z,6.22
2023-05-17T07:16:32.881Z,5.68
2023-05-17T07:19:32.697Z,7.80
2023-05-17T07:22:29.866Z,8.63
2023-05-17T07:25:26.979Z,5.82
2023-05-17T07:28:24.181Z,5.40
2023-05-17T07:31:21.232Z,6.68
2023-05-17T07:34:18.117Z,4.22
2023-05-17T07:37:15.012Z,6.53
2023-05-17T07:40:12.444Z,7.95
2023-05-17T07:43:09.395Z,5.70
2023-05-17T07:46:06.357Z,5.07
2023-05-17T07:49:03.331Z,5.20
2023-05-17T07:52:00.333Z,4.82
2023-05-17T07:54:57.190Z,3.67
2023-05-17T07:57:56.186Z,3.80
2023-05-17T08:00:53.048Z,3.28
2023-05-17T08:03:50.196Z,4.28
2023-05-17T08:06:48.342Z,4.38
2023-05-17T08:09:45.483Z,5.18
2023-05-17T08:12:42.726Z,7.97
2023-05-17T08:15:39.676Z,6.05
2023-05-17T08:18:37.588Z,4.13
2023-05-17T08:21:35.296Z,5.97
2023-05-17T08:24:32.154Z,6.13
2023-05-17T08:27:31.058Z,4.55
2023-05-17T08:30:29.480Z,4.70
2023-05-17T08:33:27.516Z,3.13
2023-05-17T08:36:24.714Z,3.70
2023-05-17T08:39:21.877Z,5.15
2023-05-17T08:42:25.174Z,5.05
2023-05-17T08:45:22.245Z,4.13
2023-05-17T08:48:22.973Z,5.28
2023-05-17T08:54:17.747Z,4.63
2023-05-17T08:57:18.099Z,4.07
2023-05-17T09:00:19.907Z,3.33
2023-05-17T09:03:19.681Z,6.78
2023-05-17T09:06:25.675Z,3.50
2023-05-17T09:09:23.565Z,5.05
2023-05-17T09:12:25.558Z,6.10
2023-05-17T09:15:24.193Z,4.00
2023-05-17T09:18:32.563Z,4.63
2023-05-17T09:21:33.938Z,4.85
2023-05-17T09:24:31.589Z,5.03
2023-05-17T09:27:32.386Z,3.88
2023-05-17T09:33:27.943Z,2.97
2023-05-17T09:36:24.859Z,3.67
2023-05-17T09:39:22.346Z,7.53
2023-05-17T09:42:19.226Z,5.85
2023-05-17T09:45:25.543Z,5.05
2023-05-17T09:48:22.676Z,5.93
2023-05-17T09:51:19.629Z,5.40
2023-05-17T09:54:17.914Z,4.75
2023-05-17T09:57:14.888Z,5.53
2023-05-17T10:00:13.372Z,6.03
2023-05-17T10:03:13.247Z,7.18
2023-05-17T10:06:19.678Z,6.33
2023-05-17T10:09:26.758Z,5.57
2023-05-17T10:12:25.795Z,4.38
2023-05-17T10:15:23.950Z,8.50
2023-05-17T10:18:22.216Z,6.80
2023-05-17T10:21:19.821Z,5.28
2023-05-17T10:24:16.844Z,5.63
2023-05-17T10:27:14.833Z,5.22
2023-05-17T10:30:14.598Z,4.65
2023-05-17T10:33:16.215Z,6.55
2023-05-17T10:36:18.001Z,9.45
2023-05-17T10:39:15.291Z,6.45
2023-05-17T10:42:15.795Z,5.10
2023-05-17T10:45:13.384Z,6.32
2023-05-17T10:48:11.530Z,8.00
2023-05-17T10:51:09.810Z,6.85
2023-05-17T10:54:13.057Z,4.97
2023-05-17T11:00:56.258Z,3.63
2023-05-17T11:03:55.697Z,7.68
2023-05-17T11:07:12.723Z,7.43
2023-05-17T11:10:14.088Z,5.88
2023-05-17T11:13:25.701Z,3.35
2023-05-17T11:16:34.364Z,3.83
2023-05-17T11:19:31.272Z,7.10
2023-05-17T11:22:37.256Z,6.22
2023-05-17T11:25:38.016Z,5.60
2023-05-17T11:31:36.479Z,6.30
2023-05-17T11:34:34.276Z,4.30
2023-05-17T11:37:31.427Z,4.43
2023-05-17T11:40:28.838Z,5.82
2023-05-17T11:43:30.876Z,5.50
2023-05-17T11:46:28.247Z,4.32
2023-05-17T11:49:34.905Z,5.28
2023-05-17T11:52:34.235Z,5.60
2023-05-17T11:55:31.393Z,3.75
2023-05-17T11:58:29.036Z,6.05
2023-05-17T12:01:25.911Z,4.07
2023-05-17T12:04:27.798Z,3.67
2023-05-17T12:07:25.958Z,5.78
2023-05-17T12:10:23.161Z,3.72
2023-05-17T12:13:21.452Z,7.00
2023-05-17T12:16:22.296Z,5.40
2023-05-17T12:19:22.479Z,5.05
2023-05-17T12:22:19.521Z,3.55
2023-05-17T12:25:25.783Z,4.30
2023-05-17T12:28:24.515Z,4.65
2023-05-17T12:31:35.042Z,5.20
2023-05-17T12:34:32.405Z,6.65
2023-05-17T12:37:29.313Z,5.60
2023-05-17T12:40:26.435Z,5.40
2023-05-17T12:43:26.808Z,4.68
2023-05-17T12:46:24.255Z,2.50
2023-05-17T12:49:21.823Z,5.65
2023-05-17T12:52:18.744Z,4.47
2023-05-17T12:55:15.621Z,4.88
2023-05-17T12:58:12.522Z,4.60
2023-05-17T13:01:14.304Z,5.63
2023-05-17T13:04:12.632Z,7.40
2023-05-17T13:07:09.549Z,4.28
2023-05-17T13:10:20.031Z,5.32
2023-05-17T13:13:21.176Z,7.15
2023-05-17T13:16:18.175Z,2.85
2023-05-17T13:19:15.434Z,6.22
2023-05-17T13:22:12.638Z,5.25
2023-05-17T13:25:09.659Z,4.15
2023-05-17T13:28:06.524Z,5.70
2023-05-17T13:31:03.448Z,3.35
2023-05-17T13:34:00.427Z,2.88
2023-05-17T13:36:57.775Z,5.45
2023-05-17T13:39:56.116Z,4.50
2023-05-17T13:42:53.248Z,3.63
2023-05-17T13:45:54.474Z,6.75
2023-05-17T13:48:51.590Z,6.72
2023-05-17T13:51:48.566Z,4.60
2023-05-17T13:54:45.412Z,4.88
2023-05-17T13:57:42.384Z,5.03
2023-05-17T14:00:42.645Z,8.90
2023-05-17T14:03:39.598Z,7.53
2023-05-17T14:06:36.469Z,4.32
2023-05-17T14:09:34.574Z,5.00
2023-05-17T14:12:31.517Z,4.95
2023-05-17T14:15:28.638Z,4.40
2023-05-17T14:18:25.746Z,7.00
2023-05-17T14:21:22.724Z,3.42
2023-05-17T14:24:19.646Z,5.47
2023-05-17T14:27:16.836Z,4.82
2023-05-17T14:30:14.797Z,4.10
2023-05-17T14:33:11.941Z,6.00
2023-05-17T14:36:09.007Z,3.50
2023-05-17T14:39:05.930Z,2.85
2023-05-17T14:42:02.811Z,6.47
2023-05-17T14:44:59.860Z,6.78
2023-05-17T14:47:56.883Z,5.35
2023-05-17T14:50:53.873Z,4.47
2023-05-17T14:53:51.455Z,4.10
2023-05-17T14:56:49.039Z,3.40
2023-05-17T14:59:45.916Z,6.68
2023-05-17T15:02:42.927Z,6.72
2023-05-17T15:05:40.274Z,3.28
2023-05-17T15:08:39.098Z,3.72
2023-05-17T15:11:36.064Z,3.72
2023-05-17T15:14:32.948Z,4.45
2023-05-17T15:17:29.833Z,5.88
2023-05-17T15:20:27.303Z,6.78
2023-05-17T15:23:24.239Z,4.43
2023-05-17T15:26:22.071Z,4.63
2023-05-17T15:29:18.949Z,3.22
2023-05-17T15:32:15.891Z,6.45
2023-05-17T15:35:12.828Z,7.53
2023-05-17T15:38:09.698Z,5.50
2023-05-17T15:41:10.728Z,5.45
2023-05-17T15:44:09.024Z,4.13
2023-05-17T15:47:05.884Z,3.97
2023-05-17T15:50:03.323Z,4.60
2023-05-17T15:53:02.413Z,6.07
2023-05-17T15:55:59.467Z,5.20
2023-05-17T15:58:56.348Z,3.33
2023-05-17T16:01:53.210Z,5.95
2023-05-17T16:04:50.270Z,5.85
2023-05-17T16:07:47.125Z,6.15
2023-05-17T16:10:44.552Z,3.92
2023-05-17T16:13:41.651Z,3.83
2023-05-17T16:16:38.519Z,4.95
2023-05-17T16:19:35.588Z,5.82
2023-05-17T16:22:33.263Z,4.97
2023-05-17T16:25:30.414Z,5.38
2023-05-17T16:28:27.532Z,5.10
2023-05-17T16:31:24.893Z,6.70
2023-05-17T16:34:21.897Z,5.18
2023-05-17T16:37:18.805Z,4.63
2023-05-17T16:40:16.668Z,4.13
2023-05-17T16:43:16.033Z,4.32
2023-05-17T16:46:12.938Z,7.05
2023-05-17T16:49:09.837Z,6.10
2023-05-17T16:52:07.802Z,4.65
2023-05-17T16:55:05.414Z,8.48
2023-05-17T16:58:05.985Z,5.45
2023-05-17T17:04:00.622Z,5.05
2023-05-17T17:06:58.419Z,7.65
2023-05-17T17:09:55.279Z,5.70
2023-05-17T17:12:52.163Z,3.75
2023-05-17T17:15:51.027Z,3.75
2023-05-17T17:18:49.580Z,5.57
2023-05-17T17:21:46.643Z,5.82
2023-05-17T17:24:44.462Z,4.57
2023-05-17T17:27:42.085Z,4.63
2023-05-17T17:30:38.964Z,13.38
2023-05-17T17:33:36.200Z,9.45
2023-05-17T17:36:33.303Z,7.00
2023-05-17T17:39:30.339Z,5.63
2023-05-17T17:42:27.518Z,7.53
2023-05-17T17:45:24.423Z,6.68
2023-05-17T17:48:21.294Z,6.38
2023-05-17T17:51:18.153Z,3.80
2023-05-17T17:54:14.985Z,5.68
2023-05-17T17:57:11.838Z,5.30
2023-05-17T18:00:11.950Z,5.78
2023-05-17T18:03:09.088Z,5.20
2023-05-17T18:06:06.229Z,6.70
2023-05-17T18:09:03.161Z,10.57
2023-05-17T18:12:00.154Z,6.68
2023-05-17T18:14:57.100Z,3.40
2023-05-17T18:17:54.787Z,4.72
2023-05-17T18:20:51.861Z,8.10
2023-05-17T18:23:48.723Z,9.18
2023-05-17T18:26:45.568Z,14.63
2023-05-17T18:29:45.793Z,6.97
2023-05-17T18:32:42.777Z,7.93
2023-05-17T18:35:39.737Z,7.55
2023-05-17T18:38:36.708Z,10.13
2023-05-17T18:41:35.737Z,10.15
2023-05-17T18:44:32.669Z,7.22
2023-05-17T18:47:29.633Z,7.65
2023-05-17T18:50:26.629Z,8.27
2023-05-17T18:53:23.833Z,7.75
2023-05-17T18:56:23.222Z,7.97
2023-05-17T18:59:20.248Z,5.47
2023-05-17T19:02:17.248Z,8.45
2023-05-17T19:05:14.465Z,8.55
2023-05-17T19:08:11.460Z,9.07
2023-05-17T19:11:08.354Z,7.53
2023-05-17T19:14:05.781Z,8.18
2023-05-17T19:17:02.695Z,10.55
2023-05-17T19:19:59.572Z,4.78
2023-05-17T19:22:56.505Z,4.20
2023-05-17T19:25:54.941Z,5.53
2023-05-17T19:28:52.238Z,5.20
2023-05-17T19:31:49.350Z,6.00
2023-05-17T19:34:46.434Z,5.57
2023-05-17T19:37:43.315Z,6.05
2023-05-17T19:40:40.882Z,4.50
2023-05-17T19:43:38.126Z,4.45
2023-05-17T19:46:35.052Z,8.75
2023-05-17T19:49:32.404Z,4.57
2023-05-17T19:52:29.256Z,4.47
2023-05-17T19:55:29.873Z,4.30
2023-05-17T19:58:28.011Z,6.13
2023-05-17T20:01:24.917Z,6.25
2023-05-17T20:04:21.827Z,4.65
2023-05-17T20:07:20.399Z,6.20
2023-05-17T20:10:17.253Z,5.25
2023-05-17T20:13:14.407Z,7.90
2023-05-17T20:16:13.899Z,7.40
2023-05-17T20:19:10.909Z,9.07
2023-05-17T20:22:07.917Z,7.55
2023-05-17T20:25:05.222Z,8.07
2023-05-17T20:28:02.271Z,8.63
2023-05-17T20:30:59.162Z,5.53
2023-05-17T20:33:56.146Z,7.20
2023-05-17T20:36:53.007Z,5.28
2023-05-17T20:39:49.898Z,3.75
2023-05-17T20:42:48.084Z,5.30
2023-05-17T20:45:45.907Z,9.25
2023-05-17T20:48:43.352Z,8.73
2023-05-17T20:51:40.571Z,4.43
2023-05-17T20:54:37.469Z,9.55
2023-05-17T20:57:34.386Z,5.03
2023-05-17T21:00:31.590Z,4.13
2023-05-17T21:03:33.282Z,8.02
2023-05-17T21:06:32.547Z,9.32
2023-05-17T21:09:29.740Z,4.93
2023-05-17T21:12:26.584Z,3.75
2023-05-17T21:15:24.167Z,6.75
2023-05-17T21:18:21.233Z,11.02
2023-05-17T21:21:18.402Z,6.63
2023-05-17T21:24:15.506Z,7.35
2023-05-17T21:27:12.379Z,10.38
2023-05-17T21:30:09.780Z,5.18
2023-05-17T21:33:06.660Z,5.97
2023-05-17T21:36:03.778Z,8.82
2023-05-17T21:39:00.653Z,6.57
2023-05-17T21:41:57.557Z,6.72
2023-05-17T21:44:54.419Z,11.20
2023-05-17T21:47:51.317Z,6.82
2023-05-17T21:50:49.766Z,11.90
2023-05-17T21:53:46.638Z,5.97
2023-05-17T21:56:43.511Z,9.55
2023-05-17T21:59:40.354Z,7.82
2023-05-17T22:02:37.316Z,9.05
2023-05-17T22:05:34.244Z,8.68
2023-05-17T22:08:32.090Z,8.75
2023-05-17T22:11:29.116Z,7.43
2023-05-17T22:14:32.957Z,7.50
2023-05-17T22:17:42.648Z,8.68
2023-05-17T22:20:44.395Z,7.13
2023-05-17T22:23:42.178Z,3.47
2023-05-17T22:26:39.075Z,11.68
2023-05-17T22:29:38.417Z,4.20
2023-05-17T22:32:37.309Z,5.93
2023-05-17T22:35:34.231Z,6.35
2023-05-17T22:38:31.087Z,7.43
2023-05-17T22:41:28.075Z,5.60
2023-05-17T22:44:24.968Z,7.63
2023-05-17T22:47:23.277Z,5.82
2023-05-17T22:50:20.281Z,5.90
2023-05-17T22:53:18.478Z,7.80
2023-05-17T22:56:15.568Z,5.97
2023-05-17T22:59:12.536Z,5.07
2023-05-17T23:02:11.206Z,5.10
2023-05-17T23:05:08.642Z,7.63
2023-05-17T23:08:07.899Z,6.32
2023-05-17T23:11:04.917Z,6.68
2023-05-17T23:14:02.046Z,8.45
2023-05-17T23:17:02.178Z,6.85
2023-05-17T23:20:12.883Z,5.20
2023-05-17T23:23:09.828Z,6.80
2023-05-17T23:26:06.694Z,8.48
2023-05-17T23:29:03.573Z,5.65
2023-05-17T23:32:00.675Z,7.60
2023-05-17T23:34:58.559Z,7.28
2023-05-17T23:37:55.418Z,6.15
2023-05-17T23:40:52.710Z,7.70
2023-05-17T23:43:49.937Z,8.63
2023-05-17T23:46:47.052Z,9.82
2023-05-17T23:49:43.936Z,9.70
2023-05-17T23:52:40.803Z,7.95
2023-05-17T23:55:38.468Z,6.80
2023-05-17T23:58:35.407Z,5.68
